createdAt,value
2023-05-22T00:01:09.174Z,35.44
2023-05-22T00:03:42.050Z,35.59
2023-05-22T00:06:27.815Z,35.52
2023-05-22T00:08:58.060Z,35.24
2023-05-22T00:11:28.364Z,34.96
2023-05-22T00:13:58.647Z,35.29
2023-05-22T00:16:29.186Z,35.28
2023-05-22T00:19:05.453Z,35.49
2023-05-22T00:21:37.751Z,35.24
2023-05-22T00:24:08.626Z,35.19
2023-05-22T00:26:38.945Z,35.39
2023-05-22T00:29:09.682Z,35.20
2023-05-22T00:31:40.210Z,35.32
2023-05-22T00:34:13.046Z,35.72
2023-05-22T00:36:44.688Z,35.34
2023-05-22T00:39:14.949Z,35.28
2023-05-22T00:41:45.248Z,35.13
2023-05-22T00:44:15.528Z,35.50
2023-05-22T00:46:46.232Z,35.36
2023-05-22T00:49:19.118Z,35.67
2023-05-22T00:51:50.244Z,35.83
2023-05-22T00:54:20.523Z,35.85
2023-05-22T00:56:51.280Z,35.86
2023-05-22T00:59:21.962Z,36.20
2023-05-22T01:01:52.641Z,35.93
2023-05-22T01:04:25.922Z,35.75
2023-05-22T01:06:56.662Z,35.86
2023-05-22T01:09:27.060Z,35.99
2023-05-22T01:12:03.269Z,36.02
2023-05-22T01:14:43.615Z,36.39
2023-05-22T01:17:24.973Z,36.09
2023-05-22T01:20:10.460Z,36.44
2023-05-22T01:23:13.517Z,36.51
2023-05-22T01:26:15.858Z,36.49
2023-05-22T01:28:59.363Z,36.77
2023-05-22T01:31:48.343Z,36.99
2023-05-22T01:34:20.449Z,37.29
2023-05-22T01:36:53.883Z,37.11
2023-05-22T01:39:25.792Z,37.14
2023-05-22T01:41:56.481Z,37.42
2023-05-22T01:44:26.680Z,37.18
2023-05-22T01:47:05.417Z,37.40
2023-05-22T01:49:36.249Z,37.58
2023-05-22T01:52:13.491Z,37.61
2023-05-22T01:54:52.944Z,37.71
2023-05-22T01:57:29.277Z,37.44
2023-05-22T02:00:07.535Z,38.14
2023-05-22T02:02:54.245Z,37.74
2023-05-22T02:05:28.010Z,37.89
2023-05-22T02:08:02.119Z,38.21
2023-05-22T02:10:34.552Z,37.64
2023-05-22T02:13:05.236Z,37.71
2023-05-22T02:15:36.426Z,38.00
2023-05-22T02:18:14.047Z,37.77
2023-05-22T02:20:45.754Z,38.03
2023-05-22T02:23:16.078Z,37.90
2023-05-22T02:25:46.175Z,38.21
2023-05-22T02:28:16.316Z,38.17
2023-05-22T02:30:48.959Z,38.28
2023-05-22T02:33:21.894Z,38.34
2023-05-22T02:35:53.705Z,38.21
2023-05-22T02:38:23.819Z,38.28
2023-05-22T02:40:54.295Z,38.54
2023-05-22T02:43:24.864Z,38.25
2023-05-22T02:45:55.325Z,38.43
2023-05-22T02:48:29.600Z,38.49
2023-05-22T02:50:59.804Z,38.42
2023-05-22T02:53:29.952Z,38.67
2023-05-22T02:56:01.753Z,38.33
2023-05-22T02:58:31.998Z,38.60
2023-05-22T03:01:03.626Z,38.77
2023-05-22T03:03:36.646Z,38.54
2023-05-22T03:06:09.117Z,38.50
2023-05-22T03:08:43.746Z,38.63
2023-05-22T03:11:14.378Z,38.76
2023-05-22T03:13:44.582Z,38.86
2023-05-22T03:16:14.925Z,38.88
2023-05-22T03:18:50.982Z,39.01
2023-05-22T03:21:21.536Z,39.10
2023-05-22T03:23:51.888Z,39.08
2023-05-22T03:26:22.260Z,39.19
2023-05-22T03:28:53.044Z,39.34
2023-05-22T03:31:24.126Z,39.32
2023-05-22T03:34:17.736Z,39.23
2023-05-22T03:36:51.442Z,39.49
2023-05-22T03:39:21.688Z,39.78
2023-05-22T03:41:59.018Z,39.58
2023-05-22T03:44:34.132Z,39.61
2023-05-22T03:47:13.398Z,39.60
2023-05-22T03:49:46.378Z,39.63
2023-05-22T03:52:16.697Z,39.75
2023-05-22T03:54:46.816Z,39.74
2023-05-22T03:57:20.216Z,39.70
2023-05-22T03:59:50.388Z,39.95
2023-05-22T04:02:20.659Z,39.71
2023-05-22T04:04:53.712Z,39.55
2023-05-22T04:07:24.042Z,39.75
2023-05-22T04:09:54.215Z,39.84
2023-05-22T04:12:24.397Z,39.82
2023-05-22T04:14:54.645Z,39.56
2023-05-22T04:17:24.912Z,39.52
2023-05-22T04:19:58.400Z,39.06
2023-05-22T04:22:31.074Z,39.14
2023-05-22T04:25:03.618Z,38.95
2023-05-22T04:27:34.694Z,38.55
2023-05-22T04:30:10.695Z,38.50
2023-05-22T04:32:45.701Z,38.12
2023-05-22T04:35:20.928Z,37.75
2023-05-22T04:37:51.375Z,37.56
2023-05-22T04:40:21.958Z,37.70
2023-05-22T04:42:54.552Z,37.24
2023-05-22T04:45:30.604Z,37.48
2023-05-22T04:48:08.287Z,36.97
2023-05-22T04:50:46.567Z,37.41
2023-05-22T04:53:17.264Z,37.62
2023-05-22T04:55:50.098Z,37.18
2023-05-22T04:58:24.121Z,36.99
2023-05-22T05:00:54.366Z,37.19
2023-05-22T05:03:25.874Z,36.77
2023-05-22T05:06:02.086Z,36.41
2023-05-22T05:08:35.509Z,36.97
2023-05-22T05:11:06.361Z,36.48
2023-05-22T05:13:36.662Z,36.35
2023-05-22T05:16:07.149Z,36.76
2023-05-22T05:18:42.619Z,36.59
2023-05-22T05:21:17.580Z,36.55
2023-05-22T05:23:52.279Z,36.29
2023-05-22T05:26:24.125Z,36.88
2023-05-22T05:29:02.427Z,36.66
2023-05-22T05:31:49.387Z,36.40
2023-05-22T05:34:50.370Z,36.93
2023-05-22T05:37:38.611Z,36.14
2023-05-22T05:40:13.231Z,36.22
2023-05-22T05:42:53.061Z,36.35
2023-05-22T05:45:30.815Z,36.31
2023-05-22T05:48:30.462Z,36.36
2023-05-22T05:51:04.682Z,36.41
2023-05-22T05:53:43.890Z,36.44
2023-05-22T05:56:15.232Z,36.02
2023-05-22T05:58:47.689Z,36.26
2023-05-22T06:01:47.686Z,35.53
2023-05-22T06:04:24.672Z,35.52
2023-05-22T06:06:56.803Z,34.58
2023-05-22T06:09:44.017Z,34.24
2023-05-22T06:12:21.089Z,33.83
2023-05-22T06:14:52.436Z,33.90
2023-05-22T06:17:23.906Z,33.32
2023-05-22T06:20:09.445Z,34.02
2023-05-22T06:22:40.895Z,33.91
2023-05-22T06:25:14.978Z,33.75
2023-05-22T06:27:46.677Z,33.91
2023-05-22T06:30:31.932Z,33.83
2023-05-22T06:33:11.836Z,33.24
2023-05-22T06:35:43.879Z,32.88
2023-05-22T06:38:15.041Z,33.64
2023-05-22T06:40:49.404Z,33.45
2023-05-22T06:43:26.165Z,33.33
2023-05-22T06:46:05.688Z,34.08
2023-05-22T06:48:46.828Z,33.75
2023-05-22T06:51:25.828Z,34.03
2023-05-22T06:54:07.125Z,33.92
2023-05-22T06:56:46.330Z,32.94
2023-05-22T06:59:20.539Z,32.72
2023-05-22T07:02:13.843Z,32.42
2023-05-22T07:05:10.699Z,31.99
2023-05-22T07:07:52.714Z,32.35
2023-05-22T07:10:25.303Z,31.62
2023-05-22T07:12:58.348Z,31.49
2023-05-22T07:15:29.329Z,31.47
2023-05-22T07:18:02.074Z,31.16
2023-05-22T07:20:32.953Z,31.16
2023-05-22T07:23:13.562Z,31.08
2023-05-22T07:25:45.239Z,30.39
2023-05-22T07:28:20.124Z,29.67
2023-05-22T07:30:59.577Z,29.94
2023-05-22T07:33:32.165Z,30.04
2023-05-22T07:36:06.902Z,30.44
2023-05-22T07:38:37.946Z,30.01
2023-05-22T07:41:08.400Z,30.28
2023-05-22T07:43:44.163Z,30.34
2023-05-22T07:46:18.426Z,29.83
2023-05-22T07:48:59.749Z,29.87
2023-05-22T07:51:31.069Z,29.70
2023-05-22T07:54:01.284Z,29.78
2023-05-22T07:56:32.682Z,29.53
2023-05-22T07:59:05.837Z,29.17
2023-05-22T08:01:37.687Z,28.35
2023-05-22T08:04:08.655Z,28.30
2023-05-22T08:06:42.794Z,27.75
2023-05-22T08:09:13.233Z,27.96
2023-05-22T08:11:43.612Z,27.50
2023-05-22T08:14:17.887Z,27.09
2023-05-22T08:16:48.277Z,27.01
2023-05-22T08:19:18.784Z,26.75
2023-05-22T08:21:48.992Z,27.59
2023-05-22T08:24:19.270Z,27.42
2023-05-22T08:26:49.588Z,27.39
2023-05-22T08:29:22.351Z,27.06
2023-05-22T08:31:52.570Z,26.49
2023-05-22T08:34:22.903Z,26.79
2023-05-22T08:36:53.093Z,26.11
2023-05-22T08:39:23.287Z,26.31
2023-05-22T08:41:53.641Z,25.24
2023-05-22T08:44:26.839Z,26.14
2023-05-22T08:46:59.952Z,26.47
2023-05-22T08:49:30.543Z,26.42
2023-05-22T08:52:15.241Z,26.50
2023-05-22T08:54:48.804Z,25.84
2023-05-22T08:57:19.364Z,25.68
2023-05-22T08:59:53.410Z,26.39
2023-05-22T09:02:24.769Z,25.98
2023-05-22T09:05:02.393Z,25.46
2023-05-22T09:07:33.011Z,24.65
2023-05-22T09:10:05.751Z,24.81
2023-05-22T09:12:36.389Z,24.47
2023-05-22T09:15:13.866Z,24.56
2023-05-22T09:17:44.258Z,24.03
2023-05-22T09:20:16.444Z,25.20
2023-05-22T09:22:46.925Z,25.18
2023-05-22T09:25:21.858Z,25.73
2023-05-22T09:27:52.299Z,25.00
2023-05-22T09:30:25.041Z,24.83
2023-05-22T09:32:57.426Z,24.13
2023-05-22T09:35:30.057Z,23.63
2023-05-22T09:38:01.468Z,24.50
2023-05-22T09:40:35.275Z,24.06
2023-05-22T09:43:10.034Z,23.12
2023-05-22T09:45:43.198Z,23.71
2023-05-22T09:48:13.701Z,24.32
2023-05-22T09:50:44.071Z,24.69
2023-05-22T09:53:14.661Z,24.65
2023-05-22T09:55:45.038Z,25.51
2023-05-22T09:58:19.253Z,25.64
2023-05-22T10:00:55.898Z,26.01
2023-05-22T10:03:27.669Z,25.70
2023-05-22T10:05:59.152Z,25.67
2023-05-22T10:08:32.239Z,25.30
2023-05-22T10:11:04.661Z,24.17
2023-05-22T10:13:37.172Z,23.71
2023-05-22T10:16:12.311Z,22.98
2023-05-22T10:18:43.701Z,22.57
2023-05-22T10:21:15.113Z,22.61
2023-05-22T10:23:45.702Z,22.77
2023-05-22T10:26:16.125Z,23.56
2023-05-22T10:29:14.261Z,24.12
2023-05-22T10:31:54.549Z,23.80
2023-05-22T10:34:32.423Z,23.14
2023-05-22T10:37:20.920Z,23.55
2023-05-22T10:40:05.041Z,22.15
2023-05-22T10:42:35.523Z,22.52
2023-05-22T10:45:07.468Z,22.49
2023-05-22T10:47:44.882Z,21.86
2023-05-22T10:50:30.276Z,21.26
2023-05-22T10:53:23.131Z,21.32
2023-05-22T10:55:54.322Z,21.94
2023-05-22T10:58:30.098Z,21.76
2023-05-22T11:01:16.905Z,21.55
2023-05-22T11:04:05.369Z,20.65
2023-05-22T11:06:41.358Z,20.47
2023-05-22T11:09:22.517Z,20.18
2023-05-22T11:12:28.901Z,19.90
2023-05-22T11:15:08.127Z,18.81
2023-05-22T11:17:50.435Z,19.70
2023-05-22T11:20:25.907Z,19.20
2023-05-22T11:23:02.066Z,19.48
2023-05-22T11:25:32.616Z,18.64
2023-05-22T11:28:06.011Z,18.93
2023-05-22T11:30:38.765Z,18.88
2023-05-22T11:33:09.161Z,17.94
2023-05-22T11:35:44.816Z,17.95
2023-05-22T11:38:15.667Z,18.14
2023-05-22T11:40:45.811Z,17.96
2023-05-22T11:43:15.977Z,17.59
2023-05-22T11:45:46.234Z,17.95
2023-05-22T11:48:16.411Z,18.12
2023-05-22T11:50:50.459Z,17.91
2023-05-22T11:53:22.123Z,17.76
2023-05-22T11:55:52.289Z,17.30
2023-05-22T11:58:25.397Z,17.19
2023-05-22T12:00:58.516Z,16.67
2023-05-22T12:03:31.866Z,16.80
2023-05-22T12:06:05.078Z,16.15
2023-05-22T12:08:35.425Z,16.83
2023-05-22T12:11:08.568Z,16.83
2023-05-22T12:13:41.021Z,16.80
2023-05-22T12:16:25.864Z,16.38
2023-05-22T12:18:57.105Z,15.65
2023-05-22T12:21:32.602Z,16.32
2023-05-22T12:24:07.090Z,16.35
2023-05-22T12:26:40.513Z,15.77
2023-05-22T12:29:11.649Z,15.77
2023-05-22T12:31:41.821Z,15.71
2023-05-22T12:34:12.370Z,15.21
2023-05-22T12:36:50.714Z,15.55
2023-05-22T12:39:23.718Z,15.88
2023-05-22T12:41:53.846Z,14.97
2023-05-22T12:44:24.085Z,14.81
2023-05-22T12:46:55.671Z,14.44
2023-05-22T12:49:28.590Z,13.78
2023-05-22T12:52:05.233Z,13.64
2023-05-22T12:54:35.341Z,13.32
2023-05-22T12:57:08.145Z,13.33
2023-05-22T12:59:43.912Z,13.89
2023-05-22T13:02:14.122Z,13.38
2023-05-22T13:04:44.896Z,13.33
2023-05-22T13:07:17.933Z,13.33
2023-05-22T13:10:02.482Z,12.55
2023-05-22T13:12:38.128Z,12.27
2023-05-22T13:15:09.686Z,13.30
2023-05-22T13:17:44.516Z,13.59
2023-05-22T13:20:16.290Z,14.25
2023-05-22T13:22:52.167Z,14.93
2023-05-22T13:25:24.003Z,15.78
2023-05-22T13:27:58.916Z,16.97
2023-05-22T13:30:41.979Z,17.53
2023-05-22T13:33:25.053Z,17.46
2023-05-22T13:36:06.389Z,17.89
2023-05-22T13:38:42.256Z,18.31
2023-05-22T13:41:12.728Z,17.98
2023-05-22T13:43:48.848Z,18.99
2023-05-22T13:46:21.218Z,18.87
2023-05-22T13:48:51.519Z,18.87
2023-05-22T13:51:23.709Z,18.78
2023-05-22T13:54:01.910Z,18.67
2023-05-22T13:56:35.540Z,19.70
2023-05-22T13:59:09.388Z,19.23
2023-05-22T14:01:39.840Z,19.30
2023-05-22T14:04:13.774Z,19.51
2023-05-22T14:06:47.907Z,19.65
2023-05-22T14:09:24.092Z,19.94
2023-05-22T14:11:57.940Z,19.91
2023-05-22T14:14:28.422Z,19.24
2023-05-22T14:16:59.013Z,20.03
2023-05-22T14:19:30.021Z,20.13
2023-05-22T14:22:00.682Z,19.37
2023-05-22T14:24:33.875Z,19.67
2023-05-22T14:27:04.095Z,19.76
2023-05-22T14:29:34.532Z,19.81
2023-05-22T14:32:09.154Z,19.62
2023-05-22T14:34:57.519Z,19.51
2023-05-22T14:37:27.966Z,19.43
2023-05-22T14:43:23.379Z,20.20
2023-05-22T14:45:53.907Z,19.76
2023-05-22T14:48:33.890Z,20.03
2023-05-22T14:51:16.340Z,19.94
2023-05-22T14:54:05.025Z,20.23
2023-05-22T14:56:37.801Z,19.91
2023-05-22T14:59:11.803Z,19.96
2023-05-22T15:01:50.201Z,20.13
2023-05-22T15:04:20.988Z,19.70
2023-05-22T15:06:54.020Z,19.99
2023-05-22T15:09:26.275Z,20.08
2023-05-22T15:11:59.164Z,20.12
2023-05-22T15:14:32.339Z,19.96
2023-05-22T15:17:05.347Z,19.05
2023-05-22T15:19:35.817Z,18.90
2023-05-22T15:22:18.738Z,19.28
2023-05-22T15:24:50.287Z,19.74
2023-05-22T15:27:23.064Z,19.60
2023-05-22T15:29:53.338Z,19.47
2023-05-22T15:32:23.979Z,19.93
2023-05-22T15:34:54.646Z,19.44
2023-05-22T15:37:24.920Z,20.16
2023-05-22T15:39:56.595Z,19.41
2023-05-22T15:42:29.370Z,20.17
2023-05-22T15:45:01.357Z,19.97
2023-05-22T15:47:32.078Z,20.08
2023-05-22T15:50:02.236Z,20.50
2023-05-22T15:52:32.564Z,20.00
2023-05-22T15:55:25.463Z,20.49
2023-05-22T15:57:58.553Z,20.02
2023-05-22T16:00:30.204Z,20.42
2023-05-22T16:03:00.454Z,20.93
2023-05-22T16:05:33.073Z,21.26
2023-05-22T16:08:03.269Z,20.62
2023-05-22T16:10:33.591Z,20.73
2023-05-22T16:13:07.988Z,21.06
2023-05-22T16:15:39.942Z,21.21
2023-05-22T16:18:11.804Z,21.27
2023-05-22T16:20:41.989Z,21.28
2023-05-22T16:23:12.141Z,21.21
2023-05-22T16:25:42.484Z,21.25
2023-05-22T16:28:15.282Z,21.33
2023-05-22T16:30:45.579Z,22.04
2023-05-22T16:33:15.843Z,21.30
2023-05-22T16:35:47.378Z,21.08
2023-05-22T16:38:17.651Z,21.26
2023-05-22T16:40:47.861Z,21.75
2023-05-22T16:43:20.817Z,22.05
2023-05-22T16:45:59.996Z,21.93
2023-05-22T16:48:44.919Z,21.81
2023-05-22T16:51:15.372Z,22.05
2023-05-22T16:53:49.081Z,22.14
2023-05-22T16:56:20.907Z,22.23
2023-05-22T16:58:53.719Z,22.05
2023-05-22T17:01:24.463Z,22.04
2023-05-22T17:03:57.259Z,22.32
2023-05-22T17:06:31.620Z,22.59
2023-05-22T17:09:02.416Z,22.37
2023-05-22T17:11:33.189Z,22.59
2023-05-22T17:14:09.692Z,22.78
2023-05-22T17:16:44.528Z,22.69
2023-05-22T17:19:17.872Z,22.73
2023-05-22T17:21:51.271Z,23.25
2023-05-22T17:24:21.672Z,23.31
2023-05-22T17:26:51.957Z,22.74
2023-05-22T17:29:28.129Z,22.52
2023-05-22T17:32:15.446Z,22.88
2023-05-22T17:34:46.021Z,22.72
2023-05-22T17:37:28.133Z,22.83
2023-05-22T17:40:06.167Z,23.06
2023-05-22T17:42:48.309Z,22.76
2023-05-22T17:45:22.570Z,23.43
2023-05-22T17:47:55.344Z,23.29
2023-05-22T17:50:34.625Z,23.19
2023-05-22T17:53:05.242Z,23.06
2023-05-22T17:55:38.418Z,23.08
2023-05-22T17:58:15.637Z,23.38
2023-05-22T18:00:52.297Z,23.48
2023-05-22T18:03:26.597Z,23.77
2023-05-22T18:06:02.966Z,23.87
2023-05-22T18:08:35.755Z,23.88
2023-05-22T18:11:08.888Z,24.27
2023-05-22T18:13:39.000Z,24.18
2023-05-22T18:16:12.117Z,24.12
2023-05-22T18:18:42.255Z,24.05
2023-05-22T18:21:12.667Z,24.86
2023-05-22T18:23:42.753Z,24.29
2023-05-22T18:26:15.300Z,24.66
2023-05-22T18:28:48.447Z,24.31
2023-05-22T18:31:23.506Z,24.23
2023-05-22T18:33:53.920Z,24.86
2023-05-22T18:36:24.755Z,24.93
2023-05-22T18:38:56.705Z,24.59
2023-05-22T18:41:27.509Z,24.80
2023-05-22T18:43:58.704Z,24.97
2023-05-22T18:46:34.305Z,25.04
2023-05-22T18:49:04.509Z,25.02
2023-05-22T18:51:37.310Z,24.63
2023-05-22T18:54:07.747Z,24.62
2023-05-22T18:56:39.039Z,24.85
2023-05-22T18:59:09.580Z,24.83
2023-05-22T19:01:42.492Z,25.25
2023-05-22T19:07:16.122Z,25.07
2023-05-22T19:09:46.503Z,25.55
2023-05-22T19:12:16.730Z,25.79
2023-05-22T19:14:48.482Z,25.23
2023-05-22T19:17:22.844Z,25.33
2023-05-22T19:19:53.148Z,25.74
2023-05-22T19:22:24.555Z,25.40
2023-05-22T19:24:54.950Z,25.70
2023-05-22T19:27:25.463Z,25.79
2023-05-22T19:29:55.728Z,26.25
2023-05-22T19:32:28.625Z,25.91
2023-05-22T19:34:59.018Z,25.98
2023-05-22T19:37:36.775Z,26.15
2023-05-22T19:40:11.409Z,26.50
2023-05-22T19:42:41.818Z,26.35
2023-05-22T19:45:21.262Z,26.02
2023-05-22T19:47:58.866Z,26.53
2023-05-22T19:50:32.556Z,26.44
2023-05-22T19:53:04.811Z,26.32
2023-05-22T19:55:34.999Z,26.57
2023-05-22T19:58:05.144Z,26.38
2023-05-22T20:00:37.229Z,26.52
2023-05-22T20:03:11.955Z,26.66
2023-05-22T20:05:44.760Z,26.62
2023-05-22T20:08:15.325Z,27.31
2023-05-22T20:10:46.566Z,27.02
2023-05-22T20:13:20.815Z,27.24
2023-05-22T20:15:54.177Z,27.67
2023-05-22T20:18:37.437Z,27.38
2023-05-22T20:21:18.842Z,27.17
2023-05-22T20:24:21.205Z,27.43
2023-05-22T20:27:01.452Z,27.85
2023-05-22T20:29:34.198Z,27.83
2023-05-22T20:32:04.685Z,27.43
2023-05-22T20:34:48.844Z,28.31
2023-05-22T20:37:23.970Z,28.05
2023-05-22T20:39:54.552Z,28.32
2023-05-22T20:42:26.399Z,28.13
2023-05-22T20:44:58.911Z,28.54
2023-05-22T20:47:30.847Z,28.23
2023-05-22T20:50:03.798Z,28.66
2023-05-22T20:52:34.750Z,28.41
2023-05-22T20:55:04.963Z,28.50
2023-05-22T20:57:35.556Z,28.47
2023-05-22T21:00:09.871Z,28.72
2023-05-22T21:02:43.451Z,29.08
2023-05-22T21:05:28.115Z,28.80
2023-05-22T21:07:58.546Z,29.10
2023-05-22T21:10:31.702Z,29.09
2023-05-22T21:13:04.073Z,29.54
2023-05-22T21:15:36.949Z,29.58
2023-05-22T21:18:12.024Z,29.23
2023-05-22T21:20:45.222Z,29.45
2023-05-22T21:23:18.354Z,29.53
2023-05-22T21:25:50.534Z,29.54
2023-05-22T21:28:20.658Z,29.79
2023-05-22T21:31:01.237Z,29.78
2023-05-22T21:33:34.721Z,30.16
2023-05-22T21:36:10.976Z,30.11
2023-05-22T21:38:43.989Z,29.79
2023-05-22T21:41:20.787Z,29.93
2023-05-22T21:43:53.898Z,30.04
2023-05-22T21:46:43.819Z,30.07
2023-05-22T21:49:14.403Z,30.61
2023-05-22T21:51:55.845Z,30.57
2023-05-22T21:54:26.074Z,30.64
2023-05-22T21:56:57.063Z,30.62
2023-05-22T21:59:33.167Z,30.62
2023-05-22T22:02:05.264Z,30.88
2023-05-22T22:04:35.592Z,30.85
2023-05-22T22:07:11.228Z,30.78
2023-05-22T22:09:41.382Z,31.33
2023-05-22T22:12:14.408Z,31.49
2023-05-22T22:14:44.604Z,31.26
2023-05-22T22:17:16.920Z,31.19
2023-05-22T22:19:47.906Z,31.42
2023-05-22T22:22:22.882Z,31.32
2023-05-22T22:24:53.124Z,31.57
2023-05-22T22:27:23.312Z,31.63
2023-05-22T22:29:53.555Z,31.79
2023-05-22T22:32:23.873Z,31.88
2023-05-22T22:34:55.317Z,31.82
2023-05-22T22:37:28.144Z,32.02
2023-05-22T22:39:58.694Z,31.74
2023-05-22T22:42:29.128Z,32.10
2023-05-22T22:44:59.402Z,32.14
2023-05-22T22:47:30.619Z,32.35
2023-05-22T22:50:00.992Z,32.06
2023-05-22T22:52:33.979Z,31.93
2023-05-22T22:55:05.281Z,32.51
2023-05-22T22:57:36.312Z,31.96
2023-05-22T23:00:12.373Z,32.26
2023-05-22T23:02:45.362Z,32.23
2023-05-22T23:05:20.538Z,32.27
2023-05-22T23:07:53.449Z,32.72
2023-05-22T23:10:23.664Z,32.51
2023-05-22T23:12:53.768Z,32.53
2023-05-22T23:15:23.980Z,32.73
2023-05-22T23:17:54.469Z,32.90
2023-05-22T23:20:24.599Z,32.82
2023-05-22T23:22:57.537Z,32.61
2023-05-22T23:25:27.923Z,33.07
2023-05-22T23:27:58.007Z,33.42
2023-05-22T23:30:28.276Z,33.19
2023-05-22T23:32:58.479Z,33.30
2023-05-22T23:35:28.587Z,33.05
2023-05-22T23:38:01.744Z,33.28
2023-05-22T23:40:32.000Z,33.14
2023-05-22T23:43:02.112Z,33.59
2023-05-22T23:45:32.242Z,33.50
2023-05-22T23:48:02.382Z,33.92
2023-05-22T23:50:32.677Z,33.58
2023-05-22T23:53:05.372Z,33.62
2023-05-22T23:55:35.588Z,33.74
2023-05-22T23:58:05.723Z,33.91
